Latest Weather Observations for Bridgetown

IDW60801

Issued at 10:05 pm WST Friday 29 August 2014 (issued every 30 minutes, with the page automatically refreshed every 10 minutes)

About weather observations | Map of weather stations | Latest weather observations for WA | Other Formats
Station Details ID: 009617 Name: BRIDGETOWN Lat: -33.95 Lon: 116.13 Height: 178.66 m
Data from the previous 72 hours. | See also: Recent months at Bridgetown
Date/Time
WST
Temp
°C
App
Temp
°C
Dew
Point
Rel
Hum
%
Delta-T
°C
Wind Press
QNH
hPa
Press
MSL
hPa
Rain
since 9 am
mm
Dir
 
Spd
km/h
Gust
km/h
Spd
kts
Gust
kts
29/10:00pm 13.9 14.8 13.9 100 0.0 N 2 6 1 3 1012.3 1012.4 18.4
29/09:30pm 13.8 15.0 13.8 100 0.0 WNW 0 0 0 0 1012.2 1012.3 17.8
29/09:00pm 13.9 14.4 13.9 100 0.0 NNW 4 6 2 3 1012.3 1012.4 17.8
29/08:30pm 14.0 14.1 14.0 100 0.0 N 6 9 3 5 1012.0 1012.1 17.8
29/08:00pm 14.1 14.6 14.1 100 0.0 N 4 6 2 3 1012.4 1012.5 17.4
29/07:30pm 14.3 14.5 14.3 100 0.0 NNW 6 7 3 4 1011.9 1012.0 17.4
29/07:00pm 14.4 14.7 14.4 100 0.0 N 6 9 3 5 1011.8 1011.9 17.4
29/06:30pm 14.5 14.8 14.5 100 0.0 NNW 6 9 3 5 1011.4 1011.5 17.4
29/06:00pm 14.6 15.3 14.6 100 0.0 N 4 6 2 3 1011.1 1011.2 17.2
29/05:30pm 14.7 16.1 14.5 99 0.1 CALM 0 2 0 1 1011.2 1011.3 16.4
29/05:00pm 15.0 16.6 14.8 99 0.1 CALM 0 0 0 0 1010.7 1010.8 16.4
29/04:30pm 15.0 16.6 14.8 99 0.1 CALM 0 0 0 0 1010.9 1011.0 16.4
29/04:00pm 14.9 16.4 14.7 99 0.1 CALM 0 0 0 0 1011.0 1011.1 16.4
29/03:30pm 14.9 15.7 14.7 99 0.1 SSE 4 6 2 3 1010.7 1010.8 16.4
29/03:00pm 15.4 16.7 15.2 99 0.1 WSW 2 9 1 5 1010.7 1010.8 16.4
29/02:30pm 14.8 15.1 14.6 99 0.1 WSW 6 11 3 6 1010.9 1011.0 16.0
29/02:00pm 15.1 15.6 14.9 99 0.1 WSW 6 13 3 7 1010.7 1010.8 15.4
29/01:30pm 15.3 16.3 15.3 100 0.0 NW 4 6 2 3 1010.7 1010.8 15.2
29/01:00pm 14.4 14.7 14.4 100 0.0 NW 6 9 3 5 1010.7 1010.8 13.8
29/12:30pm 14.6 14.8 14.6 100 0.0 NNW 7 20 4 11 1010.6 1010.7 7.6
29/12:00pm 14.9 14.8 14.9 100 0.0 N 9 15 5 8 1010.7 1010.8 3.4
29/11:30am 14.5 14.6 14.5 100 0.0 N 7 13 4 7 1011.2 1011.3 3.0
29/11:00am 14.3 14.3 14.1 99 0.1 NNW 7 13 4 7 1011.1 1011.2 2.6
29/10:30am 14.3 14.5 14.1 99 0.1 NW 6 11 3 6 1011.1 1011.2 2.6
29/10:00am 14.1 13.6 13.9 99 0.1 NNW 9 20 5 11 1011.1 1011.2 1.8
29/09:30am 14.4 14.4 14.2 99 0.1 NNW 7 15 4 8 1011.7 1011.8 0.4
29/09:00am 14.8 15.0 14.8 100 0.0 NNW 7 11 4 6 1011.1 1011.2 31.8
29/08:30am 14.5 14.8 14.5 100 0.0 N 6 7 3 4 1011.1 1011.2 31.0
29/08:00am 14.7 15.5 14.7 100 0.0 NW 4 7 2 4 1011.1 1011.2 29.2
29/07:30am 14.9 16.1 14.9 100 0.0 W 2 9 1 5 1010.3 1010.4 27.4
29/07:00am 14.9 15.4 14.9 100 0.0 W 6 9 3 5 1010.0 1010.1 27.2
29/06:30am 15.2 15.5 15.0 99 0.1 NNW 7 13 4 7 1009.6 1009.7 21.2
29/06:00am 15.3 15.3 15.1 99 0.1 NNW 9 15 5 8 1009.5 1009.6 20.4
29/05:30am 15.3 14.9 15.1 99 0.1 N 11 19 6 10 1009.6 1009.7 20.4
29/05:00am 15.3 14.9 15.1 99 0.1 NNW 11 19 6 10 1009.6 1009.7 20.2
29/04:30am 15.5 15.5 15.3 99 0.1 NNW 9 19 5 10 1009.6 1009.7 20.0
29/04:00am 15.6 14.9 15.4 99 0.1 N 13 20 7 11 1009.4 1009.5 19.8
29/03:30am 15.5 14.4 15.3 99 0.1 NNW 15 28 8 15 1009.4 1009.5 19.4
29/03:00am 15.5 15.1 15.3 99 0.1 N 11 17 6 9 1009.7 1009.8 18.2
29/02:30am 15.7 14.7 15.5 99 0.1 N 15 26 8 14 1009.9 1010.0 17.4
29/02:00am 15.8 14.4 15.6 99 0.1 NNW 17 26 9 14 1010.3 1010.4 17.4
29/01:30am 15.4 13.9 15.2 99 0.1 N 17 28 9 15 1010.1 1010.2 17.4
29/01:00am 15.3 14.9 15.1 99 0.1 NNW 11 22 6 12 1010.7 1010.8 17.4
29/12:30am 15.2 14.4 15.0 99 0.1 NNW 13 22 7 12 1011.1 1011.2 17.2
29/12:00am 14.9 14.3 14.7 99 0.1 N 11 20 6 11 1011.5 1011.6 16.6
 
Date/Time
WST
Temp
°C
App
Temp
°C
Dew
Point
Rel
Hum
%
Delta-T
°C
Wind Press
QNH
hPa
Press
MSL
hPa
Rain
since 9 am
mm
Dir
 
Spd
km/h
Gust
km/h
Spd
kts
Gust
kts
28/11:30pm 14.7 14.4 14.5 99 0.1 NNW 9 17 5 9 1011.5 1011.6 16.6
28/11:00pm 14.6 14.3 14.4 99 0.1 NNW 9 19 5 10 1011.8 1011.9 16.4
28/10:30pm 14.6 14.3 14.4 99 0.1 NNW 9 15 5 8 1012.1 1012.2 16.4
28/10:00pm 14.5 13.4 14.3 99 0.1 NW 13 32 7 17 1013.1 1013.2 14.8
28/09:30pm 15.7 13.7 15.4 98 0.2 NW 20 37 11 20 1012.4 1012.5 11.8
28/09:00pm 17.9 15.5 15.5 86 1.4 N 22 37 12 20 1011.9 1012.0 8.2
28/08:30pm 17.9 15.8 15.3 85 1.5 NNW 20 33 11 18 1011.7 1011.8 8.2
28/08:00pm 18.0 15.2 15.3 84 1.6 NNW 24 46 13 25 1011.5 1011.6 8.2
28/07:30pm 17.8 15.7 15.2 85 1.5 NNW 20 41 11 22 1011.6 1011.7 8.2
28/07:00pm 17.8 15.8 15.6 87 1.3 NNW 20 37 11 20 1011.7 1011.8 8.2
28/06:30pm 17.7 15.9 15.5 87 1.3 NNW 19 39 10 21 1011.6 1011.7 8.2
28/06:00pm 17.6 16.1 15.2 86 1.4 NNW 17 37 9 20 1011.5 1011.6 8.2
28/05:30pm 17.8 16.7 15.2 85 1.5 NNW 15 28 8 15 1011.5 1011.6 8.2
28/05:00pm 17.8 15.9 15.1 84 1.6 N 19 28 10 15 1011.6 1011.7 8.2
28/04:30pm 17.4 17.0 16.3 93 0.7 NNW 13 24 7 13 1011.7 1011.8 8.2
28/04:00pm 15.8 16.3 15.6 99 0.1 NNW 7 15 4 8 1011.8 1011.9 8.2
28/03:30pm 14.8 13.0 14.5 98 0.2 NW 17 32 9 17 1012.4 1012.5 7.0
28/03:00pm 17.6 16.8 15.2 86 1.4 WNW 13 26 7 14 1012.4 1012.5 0.0
28/02:30pm 18.3 16.4 14.2 77 2.4 NNW 17 28 9 15 1011.7 1011.8 0.0
28/02:00pm 18.5 16.6 14.2 76 2.5 NNW 17 33 9 18 1011.9 1012.0 0.0
28/01:30pm 18.6 16.3 14.1 75 2.6 NNW 19 32 10 17 1012.1 1012.2 0.0
28/01:00pm 19.0 16.3 13.4 70 3.2 NNW 20 37 11 20 1012.6 1012.7 0.0
28/12:30pm 19.8 16.7 14.4 71 3.2 NNW 24 43 13 23 1012.8 1012.9 0.0
28/12:00pm 18.6 15.9 14.5 77 2.4 N 22 41 12 22 1012.9 1013.0 0.0
28/11:30am 18.5 16.8 14.6 78 2.3 NNW 17 30 9 16 1013.3 1013.4 0.0
28/11:00am 17.9 15.3 15.0 83 1.7 N 22 30 12 16 1013.5 1013.7 0.0
28/10:46am 17.5 13.7 14.6 83 1.7 N 28 48 15 26 1013.8 1014.0 0.0
28/10:43am 17.4 12.1 14.3 82 1.8 N 35 48 19 26 1013.8 1014.0 0.0
28/10:30am 16.6 15.6 13.3 81 1.9 N 11 17 6 9 1013.9 1014.1 0.0
28/10:00am 15.4 14.0 11.0 75 2.4 N 9 17 5 9 1013.9 1014.1 0.0
28/09:30am 14.9 13.2 9.7 71 2.7 N 9 15 5 8 1014.4 1014.6 0.0
28/09:00am 14.5 13.0 9.3 71 2.7 N 7 11 4 6 1014.4 1014.6 0.0
28/08:30am 14.1 12.6 9.3 73 2.5 N 7 11 4 6 1014.6 1014.8 0.0
28/08:00am 13.9 12.7 9.5 75 2.3 N 6 11 3 6 1014.6 1014.8 0.0
28/07:30am 13.1 12.2 9.2 77 2.0 N 4 7 2 4 1014.3 1014.5 0.0
28/07:00am 13.1 11.7 9.0 76 2.1 NNW 6 11 3 6 1014.2 1014.4 0.0
28/06:30am 13.1 11.9 9.4 78 1.9 NNW 6 7 3 4 1013.9 1014.1 0.0
28/06:00am 13.0 11.8 9.6 80 1.8 NNW 6 13 3 7 1013.7 1013.9 0.0
28/05:30am 12.9 12.0 10.6 86 1.2 NNW 6 11 3 6 1013.8 1014.0 0.0
28/05:00am 12.4 12.0 11.1 92 0.7 NNW 4 7 2 4 1013.8 1014.0 0.0
28/04:30am 12.5 11.7 11.6 94 0.5 NNW 7 11 4 6 1014.2 1014.4 0.0
28/04:00am 12.5 11.8 11.9 96 0.3 NNW 7 13 4 7 1014.1 1014.3 0.0
28/03:30am 12.7 12.0 12.1 96 0.3 NNW 7 11 4 6 1014.5 1014.7 0.0
28/03:00am 12.4 11.3 12.1 98 0.2 NNW 9 13 5 7 1014.8 1014.9 0.0
28/02:30am 12.2 11.1 11.9 98 0.2 NW 9 13 5 7 1015.4 1015.5 0.0
28/02:00am 12.1 11.0 11.8 98 0.2 NW 9 11 5 6 1015.6 1015.7 0.0
28/01:30am 12.0 11.2 11.8 99 0.1 NNW 7 11 4 6 1015.8 1015.9 0.0
28/01:00am 10.9 10.8 10.9 100 0.0 NNW 2 6 1 3 1016.5 1016.6 0.0
28/12:30am 10.4 10.6 10.4 100 0.0 CALM 0 0 0 0 1016.7 1016.8 0.0
28/12:00am 10.5 10.6 10.3 99 0.1 CALM 0 0 0 0 1017.1 1017.2 0.0
 
Date/Time
WST
Temp
°C
App
Temp
°C
Dew
Point
Rel
Hum
%
Delta-T
°C
Wind Press
QNH
hPa
Press
MSL
hPa
Rain
since 9 am
mm
Dir
 
Spd
km/h
Gust
km/h
Spd
kts
Gust
kts
27/11:30pm 11.3 10.9 11.1 99 0.1 NNW 4 6 2 3 1017.3 1017.4 0.0
27/11:00pm 11.5 11.1 11.2 98 0.2 NNW 4 7 2 4 1017.7 1017.8 0.0
27/10:30pm 12.6 12.6 12.3 98 0.2 N 4 6 2 3 1017.9 1018.0 0.0
27/10:00pm 12.7 12.3 12.4 98 0.2 NNW 6 9 3 5 1018.2 1018.4 0.0
27/09:30pm 12.9 12.4 12.1 95 0.4 N 6 9 3 5 1017.9 1018.0 0.0
27/09:00pm 13.4 12.5 11.3 87 1.1 N 7 13 4 7 1018.3 1018.5 0.0
27/08:30pm 13.8 12.8 11.0 83 1.5 N 7 13 4 7 1018.5 1018.7 0.0
27/08:00pm 13.8 11.9 10.4 80 1.8 N 11 17 6 9 1018.2 1018.4 0.0
27/07:30pm 14.1 11.7 9.9 76 2.2 N 13 19 7 10 1018.4 1018.6 0.0
27/07:00pm 14.3 12.2 9.7 74 2.4 NNW 11 20 6 11 1018.2 1018.4 0.0
27/06:30pm 14.4 12.0 10.0 75 2.3 N 13 20 7 11 1017.9 1018.0 0.0
27/06:00pm 14.4 13.0 10.8 79 1.9 N 9 17 5 9 1017.8 1017.9 0.0
27/05:30pm 14.7 12.6 9.9 73 2.5 N 11 22 6 12 1017.9 1018.0 0.0
27/05:00pm 15.3 12.7 9.4 68 3.1 N 13 20 7 11 1018.0 1018.1 0.0
27/04:30pm 16.3 13.7 9.3 63 3.7 NNW 13 24 7 13 1017.9 1018.0 0.0
27/04:00pm 16.3 12.9 9.0 62 3.8 N 17 28 9 15 1017.9 1018.0 0.0
27/03:30pm 16.6 13.1 8.6 59 4.1 NNW 17 32 9 17 1017.8 1017.9 0.0
27/03:00pm 17.1 14.4 8.8 58 4.3 NNW 13 26 7 14 1018.2 1018.4 0.0
27/02:30pm 16.9 12.5 9.1 60 4.1 NNW 22 32 12 17 1017.7 1017.8 0.0
27/02:00pm 16.8 12.9 8.5 58 4.3 NNW 19 30 10 16 1017.5 1017.6 0.0
27/01:30pm 16.3 12.6 9.3 63 3.7 N 19 28 10 15 1017.8 1017.9 0.0
27/01:00pm 16.7 12.7 8.9 60 4.0 N 20 32 11 17 1018.2 1018.4 0.0
27/12:30pm 16.5 14.0 9.7 64 3.6 N 13 26 7 14 1018.8 1019.0 0.0
27/12:00pm 15.8 14.5 11.2 74 2.5 N 9 15 5 8 1019.7 1019.9 0.0
27/11:30am 14.5 12.6 10.5 77 2.1 N 11 17 6 9 1020.7 1020.8 0.0
27/11:00am 13.8 12.6 11.5 86 1.2 N 9 17 5 9 1021.1 1021.2 0.0
27/10:30am 13.6 12.8 12.8 95 0.4 N 9 13 5 7 1021.5 1021.6 0.0
27/10:00am 12.6 11.2 12.3 98 0.2 N 11 15 6 8 1021.6 1021.7 0.0
27/09:30am 12.1 11.3 11.8 98 0.2 NNE 7 15 4 8 1021.9 1022.0 0.0
27/09:00am 12.1 11.3 11.8 98 0.2 NNE 7 13 4 7 1021.6 1021.7 0.0
27/08:30am 11.0 10.1 10.8 99 0.1 N 6 7 3 4 1021.6 1021.7 0.0
27/08:00am 10.5 9.4 10.5 100 0.0 ENE 7 11 4 6 1021.5 1021.6 0.0
27/07:30am 9.9 9.5 9.9 100 0.0 ENE 2 6 1 3 1021.5 1021.6 0.0
27/07:00am 9.9 9.1 9.8 99 0.1 N 4 9 2 5 1021.6 1021.7 0.0
27/06:30am 9.8 9.4 9.7 99 0.1 N 2 4 1 2 1021.5 1021.6 0.0
27/06:00am 9.8 9.4 9.7 99 0.1 NE 2 7 1 4 1021.3 1021.4 0.0
27/05:30am 9.8 9.0 9.7 99 0.1 NNE 4 7 2 4 1021.4 1021.5 0.0
27/05:00am 9.7 8.5 9.4 98 0.1 N 6 9 3 5 1021.6 1021.7 0.0
27/04:30am 9.4 9.2 9.1 98 0.1 CALM 0 2 0 1 1021.4 1021.5 0.0
27/04:00am 8.7 8.3 8.4 98 0.1 CALM 0 2 0 1 1021.3 1021.4 0.0
27/03:30am 8.6 7.8 8.3 98 0.1 S 2 7 1 4 1021.7 1021.8 0.0
27/03:00am 9.2 8.1 8.6 96 0.3 S 4 7 2 4 1022.1 1022.2 0.0
27/02:30am 8.6 7.5 8.3 98 0.1 S 4 7 2 4 1022.3 1022.4 0.0
27/02:00am 7.2 6.6 7.2 100 0.0 CALM 0 0 0 0 1022.7 1022.8 0.0
27/01:30am 6.4 5.6 6.4 100 0.0 CALM 0 0 0 0 1023.1 1023.3 0.0
27/01:00am 6.2 5.3 6.1 99 0.0 CALM 0 0 0 0 1023.2 1023.4 0.0
27/12:30am 6.7 5.9 6.6 99 0.0 CALM 0 0 0 0 1023.4 1023.6 0.0
27/12:00am 6.8 6.0 6.7 99 0.0 CALM 0 0 0 0 1023.5 1023.7 0.0
 
Date/Time
WST
Temp
°C
App
Temp
°C
Dew
Point
Rel
Hum
%
Delta-T
°C
Wind Press
QNH
hPa
Press
MSL
hPa
Rain
since 9 am
mm
Dir
 
Spd
km/h
Gust
km/h
Spd
kts
Gust
kts
26/11:30pm 6.9 6.2 6.8 99 0.0 CALM 0 0 0 0 1023.7 1023.9 0.0
26/11:00pm 7.0 6.3 6.9 99 0.0 CALM 0 0 0 0 1023.8 1024.0 0.0
26/10:30pm 7.5 6.9 7.4 99 0.0 CALM 0 0 0 0 1023.9 1024.1 0.0

Other Formats:

Comma delimited format used in spreadsheet applications
http://www.bom.gov.au/fwo/IDW60801/IDW60801.95632.axf

JavaScript Object Notation format (JSON) in row-major order
http://www.bom.gov.au/fwo/IDW60801/IDW60801.95632.json